This is the latest recevied weather packets stored in our database for station/object DB0LS-15. If no packets are shown the sender has not sent any weather packets the latest 1 day(s).
| Time | Temp. | Humidity | Pressure | Rain* | Wind** | Luminosity | Snow |
|---|---|---|---|---|---|---|---|
| 1778106956 | 10° C | 92% | 990.1 hPa | 0 mm | - | - | - |
| 1778104541 | 10° C | 92% | 989.7 hPa | 0 mm | - | - | - |
| 1778103937 | 10.56° C | 92% | 989.7 hPa | 0 mm | - | - | - |
| 1778103333 | 10.56° C | 92% | 989.6 hPa | 0 mm | - | - | - |
| 1778099167 | 11.11° C | 93% | 989 hPa | 0 mm | - | - | - |
| 1778096752 | 11.11° C | 93% | 988.6 hPa | 0 mm | - | - | - |
| 1778096148 | 11.11° C | 93% | 988.5 hPa | 0 mm | - | - | - |
| 1778094337 | 11.67° C | 91% | 988.3 hPa | 0 mm | - | - | - |
| 1778093733 | 12.22° C | 90% | 988.2 hPa | 0 mm | - | - | - |
| 1778092525 | 12.22° C | 89% | 988.1 hPa | 0 mm | - | - | - |
| 1778091921 | 12.22° C | 89% | 988.2 hPa | 0 mm | - | - | - |
| 1778088359 | 13.33° C | 87% | 987.6 hPa | 0 mm | - | - | - |
| 1778085340 | 15° C | 85% | 987.3 hPa | 0 mm | - | - | - |
| 1778082925 | 15.56° C | 83% | 987.5 hPa | 0 mm | - | - | - |
| 1778081174 | 16.67° C | 81% | 987.5 hPa | 0 mm | - | - | - |
| 1778080570 | 16.67° C | 82% | 987.5 hPa | 0 mm | - | - | - |
| 1778078155 | 17.78° C | 76% | 987.4 hPa | 0 mm | - | - | - |
| 1778075136 | 17.78° C | 75% | 987.6 hPa | 0 mm | - | - | - |
| 1778074532 | 17.78° C | 74% | 987.7 hPa | 0 mm | - | - | - |
| 1778072721 | 16.67° C | 78% | 987.8 hPa | 0 mm | - | - | - |
| 1778072117 | 17.22° C | 79% | 987.7 hPa | 0 mm | - | - | - |
| 1778070366 | 17.22° C | 78% | 987.8 hPa | 0 mm | - | - | - |
| 1778069762 | 16.67° C | 77% | 987.7 hPa | 0 mm | - | - | - |
| 1778067951 | 16.11° C | 82% | 987.7 hPa | 0 mm | - | - | - |
| 1778067347 | 16.11° C | 83% | 987.8 hPa | 0 mm | - | - | - |
* Rain latest hour (hover to see other rain measurements)
** Current wind speed in m/s (hover to see current wind gust speed)